createdAt,value
2019-05-03T00:03:23.072Z,94.50
2019-05-03T00:08:27.998Z,94.70
2019-05-03T00:13:32.871Z,94.70
2019-05-03T00:18:37.807Z,94.90
2019-05-03T00:23:42.657Z,94.70
2019-05-03T00:28:47.486Z,94.50
2019-05-03T00:33:53.972Z,94.50
2019-05-03T00:39:01.940Z,94.00
2019-05-03T00:44:06.926Z,93.90
2019-05-03T00:49:12.065Z,93.70
2019-05-03T00:54:17.050Z,93.60
2019-05-03T00:59:22.178Z,93.30
2019-05-03T01:04:27.162Z,93.40
2019-05-03T01:09:32.532Z,93.60
2019-05-03T01:14:39.041Z,93.70
2019-05-03T01:19:43.963Z,93.90
2019-05-03T01:24:49.238Z,93.90
2019-05-03T01:29:54.588Z,94.10
2019-05-03T01:34:59.647Z,94.10
2019-05-03T01:40:08.651Z,94.00
2019-05-03T01:45:13.606Z,94.10
2019-05-03T01:50:20.121Z,94.30
2019-05-03T01:55:26.695Z,94.40
2019-05-03T02:00:31.905Z,94.40
2019-05-03T02:05:42.971Z,94.30
2019-05-03T02:10:48.080Z,94.20
2019-05-03T02:15:53.053Z,94.00
2019-05-03T02:20:57.854Z,93.60
2019-05-03T02:26:03.094Z,93.40
2019-05-03T02:31:08.081Z,93.30
2019-05-03T02:36:13.624Z,93.00
2019-05-03T02:41:18.684Z,92.70
2019-05-03T02:46:25.639Z,92.50
2019-05-03T02:51:30.538Z,92.00
2019-05-03T02:56:35.960Z,91.80
2019-05-03T03:01:42.137Z,91.30
2019-05-03T03:06:48.090Z,91.10
2019-05-03T03:11:55.826Z,90.80
2019-05-03T03:17:02.652Z,90.50
2019-05-03T03:22:10.889Z,90.00
2019-05-03T03:27:18.666Z,90.20
2019-05-03T03:32:30.129Z,90.10
2019-05-03T03:37:35.431Z,89.60
2019-05-03T03:42:44.836Z,88.20
2019-05-03T03:47:51.668Z,88.30
2019-05-03T03:52:58.818Z,87.30
2019-05-03T03:58:06.439Z,86.50
2019-05-03T04:03:10.922Z,85.80
2019-05-03T04:08:16.126Z,85.50
2019-05-03T04:13:25.310Z,84.80
2019-05-03T04:18:39.736Z,84.50
2019-05-03T04:23:45.880Z,82.70
2019-05-03T04:28:50.974Z,83.10
2019-05-03T04:33:56.389Z,82.20
2019-05-03T04:39:01.397Z,82.10
2019-05-03T04:44:06.626Z,81.60
2019-05-03T04:49:11.621Z,81.40
2019-05-03T04:54:20.813Z,81.70
2019-05-03T04:59:25.752Z,80.90
2019-05-03T05:04:30.654Z,81.70
2019-05-03T05:09:35.460Z,80.90
2019-05-03T05:14:41.267Z,81.10
2019-05-03T05:19:54.919Z,79.60
2019-05-03T05:25:01.684Z,78.70
2019-05-03T05:30:08.797Z,78.00
2019-05-03T05:35:14.365Z,77.90
2019-05-03T05:40:24.422Z,77.40
2019-05-03T05:45:28.718Z,77.30
2019-05-03T05:50:35.351Z,77.10
2019-05-03T05:55:50.643Z,79.00
2019-05-03T06:00:57.151Z,79.80
2019-05-03T06:06:05.315Z,78.70
2019-05-03T06:11:26.735Z,79.10
2019-05-03T06:16:36.153Z,78.60
2019-05-03T06:21:44.442Z,77.80
2019-05-03T06:27:00.136Z,77.70
2019-05-03T06:32:09.350Z,77.20
2019-05-03T06:37:21.752Z,78.10
2019-05-03T06:42:26.600Z,76.20
2019-05-03T06:47:31.460Z,74.30
2019-05-03T06:52:36.295Z,74.20
2019-05-03T06:57:45.620Z,74.40
2019-05-03T07:02:50.867Z,70.30
2019-05-03T07:08:15.151Z,69.30
2019-05-03T07:13:20.246Z,68.40
2019-05-03T07:18:25.341Z,67.30
2019-05-03T07:23:30.177Z,67.30
2019-05-03T07:28:46.301Z,69.30
2019-05-03T07:33:41.540Z,66.50
2019-05-03T07:38:46.388Z,68.90
2019-05-03T07:43:51.246Z,69.50
2019-05-03T07:48:56.090Z,70.20
2019-05-03T07:54:00.925Z,70.80
2019-05-03T07:59:07.351Z,71.20
2019-05-03T08:04:12.275Z,72.30
2019-05-03T08:09:17.124Z,71.60
2019-05-03T08:14:21.894Z,71.60
2019-05-03T08:19:27.212Z,72.90
2019-05-03T08:24:32.208Z,72.00
2019-05-03T08:29:38.670Z,71.70
2019-05-03T08:34:45.364Z,72.40
2019-05-03T08:39:50.273Z,70.20
2019-05-03T08:44:55.428Z,66.20
2019-05-03T08:50:00.465Z,65.80
2019-05-03T08:55:06.385Z,69.10
2019-05-03T09:00:14.494Z,70.30
2019-05-03T09:05:19.921Z,70.60
2019-05-03T09:10:29.349Z,67.10
2019-05-03T09:15:35.163Z,67.40
2019-05-03T09:20:40.076Z,67.50
2019-05-03T09:25:45.871Z,65.30
2019-05-03T09:30:50.976Z,60.00
2019-05-03T09:35:55.808Z,61.90
2019-05-03T09:41:00.651Z,67.60
2019-05-03T09:46:05.472Z,66.00
2019-05-03T09:51:10.319Z,64.00
2019-05-03T09:56:15.568Z,54.70
2019-05-03T10:01:20.735Z,54.60
2019-05-03T10:06:25.579Z,54.60
2019-05-03T10:11:30.350Z,53.50
2019-05-03T10:16:36.839Z,58.20
2019-05-03T10:21:44.900Z,62.50
2019-05-03T10:26:49.977Z,76.50
2019-05-03T10:31:56.457Z,77.60
2019-05-03T10:37:01.366Z,74.10
2019-05-03T10:42:06.217Z,62.80
2019-05-03T10:47:11.062Z,56.60
2019-05-03T10:52:16.710Z,52.00
2019-05-03T10:57:24.834Z,51.20
2019-05-03T11:02:35.268Z,50.80
2019-05-03T11:07:40.507Z,51.00
2019-05-03T11:12:45.355Z,49.10
2019-05-03T11:17:50.262Z,49.20
2019-05-03T11:22:55.209Z,51.80
2019-05-03T11:28:01.678Z,46.20
2019-05-03T11:33:15.271Z,47.00
2019-05-03T11:38:27.725Z,48.50
2019-05-03T11:43:32.567Z,50.40
2019-05-03T11:48:37.396Z,45.20
2019-05-03T11:53:42.239Z,45.90
2019-05-03T11:58:47.086Z,42.70
2019-05-03T12:03:51.995Z,41.70
2019-05-03T12:08:56.764Z,41.50
2019-05-03T12:14:11.057Z,42.10
2019-05-03T12:19:19.695Z,43.20
2019-05-03T12:24:26.476Z,46.60
2019-05-03T12:29:30.478Z,54.10
2019-05-03T12:34:35.435Z,64.20
2019-05-03T12:39:40.266Z,67.30
2019-05-03T12:44:46.041Z,71.00
2019-05-03T12:49:51.027Z,70.80
2019-05-03T12:54:55.859Z,68.70
2019-05-03T13:00:15.641Z,67.90
2019-05-03T13:05:20.660Z,67.60
2019-05-03T13:10:26.573Z,66.70
2019-05-03T13:15:31.692Z,62.10
2019-05-03T13:20:36.536Z,59.60
2019-05-03T13:25:41.456Z,56.80
2019-05-03T13:30:46.310Z,57.20
2019-05-03T13:35:51.125Z,59.70
2019-05-03T13:40:55.877Z,62.70
2019-05-03T13:46:00.722Z,68.90
2019-05-03T13:51:05.595Z,78.60
2019-05-03T13:56:10.388Z,80.60
2019-05-03T14:01:15.231Z,73.40
2019-05-03T14:06:20.007Z,67.90
2019-05-03T14:11:25.411Z,66.20
2019-05-03T14:16:30.470Z,62.50
2019-05-03T14:21:48.475Z,63.80
2019-05-03T14:26:55.152Z,63.90
2019-05-03T14:31:59.960Z,64.60
2019-05-03T14:37:04.797Z,63.50
2019-05-03T14:42:09.627Z,60.90
2019-05-03T14:47:14.777Z,59.40
2019-05-03T14:52:19.776Z,55.00
2019-05-03T14:57:26.249Z,51.20
2019-05-03T15:02:43.675Z,53.10
2019-05-03T15:07:42.444Z,50.90
2019-05-03T15:12:47.272Z,51.20
2019-05-03T15:17:52.101Z,51.40
2019-05-03T15:22:56.933Z,52.20
2019-05-03T15:28:01.872Z,53.90
2019-05-03T15:33:06.718Z,52.40
2019-05-03T15:38:11.557Z,53.60
2019-05-03T15:43:20.860Z,53.30
2019-05-03T15:48:27.477Z,52.10
2019-05-03T15:53:32.324Z,53.10
2019-05-03T15:58:37.145Z,52.70
2019-05-03T16:03:41.976Z,53.60
2019-05-03T16:08:46.809Z,54.70
2019-05-03T16:13:51.661Z,72.80
2019-05-03T16:18:56.498Z,82.30
2019-05-03T16:24:01.324Z,85.70
2019-05-03T16:29:15.027Z,88.10
2019-05-03T16:34:20.827Z,88.30
2019-05-03T16:39:26.949Z,88.90
2019-05-03T16:44:31.927Z,88.90
2019-05-03T16:49:36.807Z,89.60
2019-05-03T16:54:41.572Z,88.60
2019-05-03T17:12:42.451Z,86.40
2019-05-03T17:17:47.336Z,86.90
2019-05-03T17:22:52.174Z,84.80
2019-05-03T17:27:57.010Z,83.30
2019-05-03T17:33:01.860Z,83.60
2019-05-03T17:38:06.687Z,83.70
2019-05-03T17:43:29.682Z,82.30
2019-05-03T17:48:34.947Z,82.90
2019-05-03T17:53:56.598Z,81.90
2019-05-03T17:59:04.552Z,82.10
2019-05-03T18:04:11.153Z,82.80
2019-05-03T18:09:17.693Z,83.60
2019-05-03T18:14:22.815Z,83.50
2019-05-03T18:19:27.839Z,81.90
2019-05-03T18:24:52.358Z,83.00
2019-05-03T18:29:57.214Z,83.80
2019-05-03T18:35:02.106Z,84.50
2019-05-03T18:40:08.323Z,85.00
2019-05-03T18:45:31.444Z,85.20
2019-05-03T18:50:36.375Z,84.80
2019-05-03T18:55:41.275Z,87.50
2019-05-03T19:00:46.112Z,89.60
2019-05-03T19:05:52.611Z,90.40
2019-05-03T19:11:05.148Z,90.70
2019-05-03T19:16:24.543Z,91.10
2019-05-03T19:21:29.721Z,90.70
2019-05-03T19:26:35.317Z,90.70
2019-05-03T19:31:40.498Z,90.60
2019-05-03T19:36:45.730Z,90.80
2019-05-03T19:41:50.830Z,91.00
2019-05-03T19:46:55.707Z,91.30
2019-05-03T19:52:00.724Z,91.50
2019-05-03T19:57:05.574Z,91.60
2019-05-03T20:02:17.873Z,92.20
2019-05-03T20:07:27.101Z,92.20
2019-05-03T20:12:32.070Z,91.90
2019-05-03T20:17:36.895Z,92.00
2019-05-03T20:22:41.740Z,92.10
2019-05-03T20:27:46.585Z,92.30
2019-05-03T20:32:51.427Z,92.40
2019-05-03T20:37:56.271Z,92.10
2019-05-03T20:43:08.668Z,92.60
2019-05-03T20:48:15.143Z,92.40
2019-05-03T20:53:20.125Z,92.00
2019-05-03T20:58:25.246Z,92.20
2019-05-03T21:03:30.299Z,92.20
2019-05-03T21:08:35.144Z,92.40
2019-05-03T21:13:42.385Z,92.40
2019-05-03T21:18:47.991Z,92.30
2019-05-03T21:24:12.664Z,92.10
2019-05-03T21:29:17.503Z,91.70
2019-05-03T21:34:22.339Z,91.60
2019-05-03T21:39:27.176Z,91.90
2019-05-03T21:44:33.589Z,92.30
2019-05-03T21:49:46.027Z,92.50
2019-05-03T21:54:51.012Z,92.70
2019-05-03T21:59:55.868Z,92.70
2019-05-03T22:05:14.274Z,93.10
2019-05-03T22:10:19.164Z,93.00
2019-05-03T22:15:44.221Z,93.10
2019-05-03T22:20:50.741Z,93.30
2019-05-03T22:25:56.953Z,93.60
2019-05-03T22:31:04.363Z,93.40
2019-05-03T22:36:09.115Z,93.00
2019-05-03T22:41:14.798Z,93.20
2019-05-03T22:46:19.757Z,92.80
2019-05-03T22:51:24.630Z,92.60
2019-05-03T22:56:29.575Z,92.80
2019-05-03T23:01:35.192Z,92.50
2019-05-03T23:06:40.317Z,92.40
2019-05-03T23:11:45.238Z,92.00
2019-05-03T23:16:51.605Z,92.10
2019-05-03T23:21:58.173Z,91.80
2019-05-03T23:27:04.915Z,91.70
2019-05-03T23:32:09.520Z,91.80
2019-05-03T23:37:14.761Z,91.80
2019-05-03T23:42:19.599Z,91.60
2019-05-03T23:47:29.194Z,91.30
2019-05-03T23:52:35.322Z,90.80
2019-05-03T23:57:40.958Z,90.70
